Huvudsida
METAR-TAF:

METAR-TAF

Flygplatser :

Neapel, Italien

latitud: 40-51N, longitud: 014-18E, höjd: 88 m

Aktuellt väderrapport

Denna rapport gjordes för 42 minuter sedan, klockan 07:50 UTC
Vind 5 kt från nordost
Temperatur 10°C
Fuktighet 46%
Tryck 1030 hPa
Sikt 10 km eller mer
Inga moln under 1 500 m eller inga cumulonimbus

METAR: LIRN 220750Z 04005KT CAVOK 10/M01 Q1030 NOSIG

Tid: 09:32 (08:32 UTC)

Väderprognos

Denna rapport gjordes för 3 timmar och 32 minuter sedan, klockan 05:00 UTC
Prognos gäller från 22 kl. 06 UTC till 23 kl. 06 UTC
Vind 10 kt från nordost
Sikt 10 km eller mer
Inga moln under 1 500 m eller inga cumulonimbus
Blir
från 22 kl. 16 UTC till 22 kl. 18 UTC
Vind 5 kt varierande vindriktning

TAF: LIRN 220500Z 2206/2306 04010KT CAVOK BECMG 2216/2218 VRB05KT

Aktuella väderrapporter och prognoser från 4000 flygplatser (METAR- och TAF-rapporter).

De tillgängliga stationerna syns som gula och röda prickar på kartan.

För musen över prickarna för att se namnen på stationerna.

Klicka sedan för att få väderrapporter och prognoser.

För att ändra kartan: Klicka på de gröna knapparna med ett svart kors på för att zooma in; den gröna knappen med ett streck på för att zooma ut; eller på de gröna pilarna för angränsande kartor.


METAR-TAF: